Language selection

My Weather Profile Weather Topics  | 

Howe Sound: Past 24 Hour Conditions

 

South Nomad - 46036

06:00 PM PDT 22 May 2022Buoy position: 48.35N 133.95W
Disclaimer

This table is a summary of hourly weather conditions for the past 24 hours.
Please note that these observations might not always be representative of weather conditions over their associated marine area.

Date / Time
(PDT)
Wind(knots) Wave height(m) Wave period(s) Pressure(kPa) Air tempC) Water tempC)
22 May 2022
18:00 NW 15 gust 20 2.3 10.2 102.3 9 9
17:00 NW 15 gust 18 2.4 10.2 102.3 9 9
16:00 NW 15 gust 19 2.2 9.8 102.3 9 9
15:00 NW 16 gust 18 2.2 9.5 102.2 9 9
14:00 WNW 16 gust 20 2.3 10.2 102.2 9 9
13:00 WNW 15 gust 17 2.3 10.7 102.1 9 9
12:00 WNW 11 gust 14 2.3 10.7 102.0 9 9
11:00 WNW 11 gust 13 2.2 10.2 102.0 9 9
10:00 W 10 gust 12 2.2 9.8 101.9 9 9
9:00 W 10 gust 12 2.5 11.1 101.9 9 9
8:00 WSW 9 gust 10 2.3 11.1 101.8 9 9
7:00 SW 8 gust 9 2.4 8.3 101.8 9 9
6:00 SW 8 gust 10 2.5 9.8 101.7 9 9
5:00 SSW 8 gust 10 2.8 10.2 101.7 9 9
4:00 S 12 gust 16 2.9 7.3 101.7 9 9
3:00 SSE 15 gust 18 2.9 7.1 101.8 9 9
2:00 SSE 18 gust 22 3.0 7.3 101.8 9 9
1:00 SSE 21 gust 25 2.8 8.0 101.8 9 9
0:00 SSE 22 gust 26 2.6 6.6 101.9 9 9
21 May 2022
23:00 SSE 22 gust 26 2.5 6.7 102.0 9 9
22:00 SSE 20 gust 24 2.2 6.1 102.0 9 9
21:00 SSE 20 gust 25 2.0 6.4 102.0 9 9
20:00 SE 20 gust 26 1.9 10.2 102.1 9 9
19:00 SE 19 gust 23 1.7 9.1 102.1 9 9
18:00 SSE 19 gust 22 1.6 9.5 102.2 9 9

Zoom-in to make a selection

Map of Pacific - South Coast marine weather areas South Nomad - 46036 Sentry Shoal - 46131 South Brooks - 46132 Halibut Bank - 46146 South Moresby - 46147 South Hecate Strait - 46185 West Sea Otter - 46204 La Perouse Bank - 46206 East Dellwood - 46207 Georgia Strait - 46303 English Bay - 46304 Discovery Island Esquimalt Harbour Kelp Reefs Malahat Race Rocks Lightstation Saturna Island Sheringham Point University of Victoria Victoria Gonzales Victoria Int'l Airport Ballenas Islands Campbell River Airport Comox Airport Entrance Island Fanny Island Nanaimo Airport Port Hardy Airport Sisters Islets Estevan Point Port Alberni Sartine Island Solander Island Tofino Airport Grief Point Howe Sound - Pam Rocks Powell River Airport Sechelt Squamish Airport Cape St.James Bella Bella Airport Bella Coola Airport Cathedral Point Herbert Island Point Atkinson Sand Heads Lightstation Tsawwassen Ferry Terminal Vancouver Int'l Airport Vancouver Harbour West Vancouver
Legend:
buoy Buoy
land station Land Station

Pacific - South Coast Area

Another Region

What we are doing

Features

Hello Weather

Hello Weather: our upgraded telephone weather service is here. 1-833-794-3556 or 1-833-79HELLO.

Date modified: